Time;durP1;ratioP1;P1;durP2;ratioP2;P2;SDS_P1;SDS_P2;PMS_P1;PMS_P2;Temp;Humidity;BMP_temperature;BMP_pressure;BME280_temperature;BME280_humidity;BME280_pressure;Samples;Min_cycle;Max_cycle;Signal;HPM_P1;HPM_P2
2021/11/30 00:01:57;;;;;;;9.75;5.25;;;;;;;1.91;86.77;97079.31;1646823;86;21136;-79
2021/11/30 00:04:29;;;;;;;8.75;5.40;;;;;;;1.91;87.08;97098.25;1648980;86;21648;-76
2021/11/30 00:07:02;;;;;;;10.55;5.70;;;;;;;1.92;87.12;97089.02;1648752;86;21075;-78
2021/11/30 00:12:08;;;;;;;9.08;5.12;;;;;;;1.94;87.11;97110.34;1649541;86;20892;-80
2021/11/30 00:14:36;;;;;;;10.70;6.10;;;;;;;1.93;87.85;97114.96;1647572;86;21929;-81
2021/11/30 00:17:09;;;;;;;9.65;5.45;;;;;;;1.93;87.85;97114.96;1649540;86;21952;-81
2021/11/30 00:19:38;;;;;;;11.55;5.85;;;;;;;1.92;87.58;97124.20;1671140;84;21031;-77
2021/11/30 00:22:13;;;;;;;8.55;4.70;;;;;;;1.92;87.87;97134.22;1680570;84;21051;-77
2021/11/30 00:24:39;;;;;;;9.25;5.65;;;;;;;1.89;87.90;97127.53;1684229;84;21080;-75
2021/11/30 00:27:10;;;;;;;9.88;5.40;;;;;;;1.88;87.99;97111.63;1676400;85;21990;-78
2021/11/30 00:29:42;;;;;;;9.75;6.05;;;;;;;1.89;88.18;97116.71;1681501;84;21530;-76
2021/11/30 00:32:09;;;;;;;10.95;6.22;;;;;;;1.88;88.36;97125.94;1652720;85;21007;-75
2021/11/30 00:34:38;;;;;;;9.55;5.85;;;;;;;1.90;88.40;97132.39;1647287;86;21078;-76
2021/11/30 00:37:10;;;;;;;13.30;6.05;;;;;;;1.89;88.70;97134.30;1640316;86;21020;-76
2021/11/30 00:39:39;;;;;;;10.85;5.58;;;;;;;1.90;88.63;97134.53;1645613;86;21182;-78
2021/11/30 00:42:06;;;;;;;11.03;6.17;;;;;;;1.91;88.70;97131.27;1644033;86;21087;-77
2021/11/30 00:44:37;;;;;;;8.60;5.30;;;;;;;1.89;88.37;97135.66;1641322;86;20949;-78
2021/11/30 00:47:04;;;;;;;9.28;5.72;;;;;;;1.89;88.97;97129.45;1645409;86;20979;-78
2021/11/30 00:49:32;;;;;;;8.80;5.65;;;;;;;1.90;88.19;97133.74;1644805;86;21403;-78
2021/11/30 00:52:04;;;;;;;9.63;5.12;;;;;;;1.89;88.36;97145.13;1624314;87;21546;-78
2021/11/30 00:54:35;;;;;;;9.08;5.08;;;;;;;1.89;88.19;97142.41;1623757;86;21024;-77
2021/11/30 00:57:04;;;;;;;8.33;5.53;;;;;;;1.89;88.64;97153.80;1643225;86;21004;-78
2021/11/30 00:59:34;;;;;;;8.93;5.35;;;;;;;1.89;88.54;97153.23;1638603;86;21086;-78
2021/11/30 01:02:05;;;;;;;8.58;5.40;;;;;;;1.87;88.56;97148.70;1645307;86;26530;-78
2021/11/30 01:04:42;;;;;;;8.80;5.40;;;;;;;1.87;88.64;97154.67;1622066;87;21025;-78
2021/11/30 01:07:15;;;;;;;5.78;3.80;;;;;;;1.86;88.50;97148.46;1645129;86;21011;-78
2021/11/30 01:09:46;;;;;;;8.55;5.15;;;;;;;1.87;88.28;97166.84;1624276;86;21030;-78
2021/11/30 01:12:17;;;;;;;8.45;5.25;;;;;;;1.87;88.32;97155.47;1645536;86;21082;-79
2021/11/30 01:14:48;;;;;;;8.33;4.92;;;;;;;1.86;88.48;97143.61;1641056;86;21023;-79
2021/11/30 01:17:16;;;;;;;8.08;5.30;;;;;;;1.84;88.01;97156.09;1642844;86;22112;-79
2021/11/30 01:19:45;;;;;;;10.80;5.28;;;;;;;1.83;88.24;97154.50;1664171;85;21044;-78
2021/11/30 01:22:14;;;;;;;7.78;4.97;;;;;;;1.81;88.71;97147.81;1672509;85;20959;-78
2021/11/30 01:24:46;;;;;;;7.05;5.10;;;;;;;1.78;89.84;97165.48;1676565;84;21107;-79
2021/11/30 01:27:16;;;;;;;17.25;5.65;;;;;;;1.71;90.68;97151.66;1653978;85;21076;-79
2021/11/30 01:29:49;;;;;;;8.60;5.20;;;;;;;1.65;91.14;97161.83;1666534;85;21100;-79
2021/11/30 01:32:16;;;;;;;13.85;6.12;;;;;;;1.61;91.15;97147.34;1657462;85;21018;-79
2021/11/30 01:34:44;;;;;;;9.18;5.45;;;;;;;1.61;90.92;97145.19;1674449;84;20932;-77
2021/11/30 01:37:15;;;;;;;8.78;5.55;;;;;;;1.60;90.39;97153.06;1679130;84;21004;-78
2021/11/30 01:39:51;;;;;;;8.43;5.40;;;;;;;1.63;90.31;97153.79;1675016;84;21451;-78
2021/11/30 01:42:20;;;;;;;8.85;5.12;;;;;;;1.66;89.28;97131.52;1681624;84;21099;-80
2021/11/30 01:44:53;;;;;;;7.85;5.30;;;;;;;1.69;88.72;97114.66;1685771;84;21169;-78
2021/11/30 01:47:35;;;;;;;7.80;5.05;;;;;;;1.74;88.58;97149.64;1680311;85;21546;-77
2021/11/30 01:49:55;;;;;;;8.43;4.90;;;;;;;1.75;88.76;97178.84;1671653;83;20923;-77
2021/11/30 01:52:24;;;;;;;12.28;5.40;;;;;;;1.73;88.54;97162.95;1679401;84;21122;-78
2021/11/30 01:54:55;;;;;;;10.18;5.62;;;;;;;1.71;88.49;97157.06;1672834;84;21673;-85
2021/11/30 01:57:25;;;;;;;10.68;6.15;;;;;;;1.71;88.48;97136.78;1654364;86;21638;-87
2021/11/30 01:59:57;;;;;;;10.75;5.75;;;;;;;1.72;88.35;97151.89;1625957;86;21071;-85
2021/11/30 02:02:26;;;;;;;10.10;5.80;;;;;;;1.72;88.19;97170.03;1640343;86;21530;-86
2021/11/30 02:04:52;;;;;;;12.50;7.05;;;;;;;1.72;88.12;97164.06;1645212;86;21664;-83
2021/11/30 02:07:21;;;;;;;13.10;7.60;;;;;;;1.72;87.84;97152.45;1641752;86;22310;-80
2021/11/30 02:09:49;;;;;;;12.73;7.17;;;;;;;1.71;87.32;97168.44;1643437;86;21555;-83
2021/11/30 02:12:20;;;;;;;12.58;7.35;;;;;;;1.71;87.21;97166.53;1645188;85;21082;-85
2021/11/30 02:14:50;;;;;;;11.73;7.08;;;;;;;1.71;87.15;97161.67;1641940;86;20995;-83
2021/11/30 02:17:21;;;;;;;11.68;6.47;;;;;;;1.70;86.52;97170.34;1644900;86;21525;-82
2021/11/30 02:19:53;;;;;;;11.35;6.62;;;;;;;1.69;86.67;97178.22;1671041;84;21153;-84
2021/11/30 02:22:22;;;;;;;11.83;7.55;;;;;;;1.70;86.48;97184.42;1653097;84;21459;-85
2021/11/30 02:24:48;;;;;;;10.63;7.15;;;;;;;1.68;86.92;97194.20;1681419;84;20996;-84
2021/11/30 02:27:20;;;;;;;11.45;7.22;;;;;;;1.67;86.76;97179.09;1678994;84;21004;-82
2021/11/30 02:29:48;;;;;;;11.88;6.80;;;;;;;1.67;86.78;97197.22;1674935;84;21086;-84
2021/11/30 02:32:14;;;;;;;16.10;7.53;;;;;;;1.66;86.94;97188.31;1673008;84;21211;-79
2021/11/30 02:34:45;;;;;;;11.73;7.30;;;;;;;1.66;86.38;97192.38;1686533;84;20971;-78
2021/11/30 02:37:16;;;;;;;12.98;7.58;;;;;;;1.65;86.32;97194.83;1671544;84;20898;-78
2021/11/30 02:39:44;;;;;;;11.93;7.00;;;;;;;1.65;86.24;97198.34;1655997;85;21541;-78
2021/11/30 02:42:13;;;;;;;12.37;7.17;;;;;;;1.65;86.38;97197.54;1644515;86;21012;-76
2021/11/30 02:44:42;;;;;;;12.05;6.85;;;;;;;1.65;86.33;97198.89;1645572;86;21151;-77
2021/11/30 02:47:13;;;;;;;9.45;6.70;;;;;;;1.65;86.20;97202.95;1640825;86;21133;-77
2021/11/30 02:49:42;;;;;;;13.32;7.42;;;;;;;1.64;85.99;97206.77;1640509;86;21083;-78
2021/11/30 02:52:18;;;;;;;10.93;6.83;;;;;;;1.63;85.69;97201.91;1644390;86;21467;-77
2021/11/30 02:54:52;;;;;;;11.25;6.33;;;;;;;1.62;85.51;97206.28;1644637;86;21565;-79
2021/11/30 02:57:19;;;;;;;12.18;6.67;;;;;;;1.63;85.38;97183.53;1645092;86;21211;-76
2021/11/30 02:59:49;;;;;;;13.00;7.28;;;;;;;1.62;85.62;97198.97;1643706;86;20959;-79
2021/11/30 03:02:24;;;;;;;13.00;7.87;;;;;;;1.62;86.09;97198.17;1644060;86;21052;-77
2021/11/30 03:04:55;;;;;;;10.45;6.87;;;;;;;1.62;85.74;97192.76;1638289;86;21051;-75
2021/11/30 03:07:39;;;;;;;10.53;6.45;;;;;;;1.61;85.69;97201.42;1643570;86;21008;-76
2021/11/30 03:10:10;;;;;;;;;;;;;;;1.59;85.19;97202.30;1646438;86;21123;-76
2021/11/30 03:12:40;;;;;;;15.23;6.53;;;;;;;1.60;85.62;97232.84;1642177;85;20485;-76
2021/11/30 03:15:14;;;;;;;10.28;6.78;;;;;;;1.58;85.40;97220.98;1646331;86;21084;-76
2021/11/30 03:17:46;;;;;;;11.90;6.72;;;;;;;1.59;85.43;97241.51;1622155;87;21029;-77
2021/11/30 03:20:17;;;;;;;12.00;7.10;;;;;;;1.59;85.47;97239.36;1647764;86;21008;-77
2021/11/30 03:22:46;;;;;;;11.35;6.37;;;;;;;1.61;86.24;97231.73;1646842;85;21136;-77
2021/11/30 03:25:17;;;;;;;13.60;8.00;;;;;;;1.62;85.73;97240.88;1657090;85;20985;-77
2021/11/30 03:27:49;;;;;;;10.63;6.42;;;;;;;1.61;85.12;97224.97;1662230;85;21526;-76
2021/11/30 03:30:25;;;;;;;;;;;;;;;1.61;85.28;97242.55;1639688;86;21020;-76
2021/11/30 03:35:41;;;;;;;10.98;6.83;;;;;;;1.59;85.72;97243.41;1645224;85;21076;-74
2021/11/30 03:38:12;;;;;;;12.13;7.72;;;;;;;1.58;85.44;97244.52;1661792;85;21095;-75
2021/11/30 03:40:41;;;;;;;11.33;6.67;;;;;;;1.55;85.42;97243.24;1652600;85;21079;-79
2021/11/30 03:43:14;;;;;;;12.50;7.10;;;;;;;1.55;85.61;97246.50;1623271;86;21032;-79
2021/11/30 03:45:49;;;;;;;10.88;7.12;;;;;;;1.54;85.55;97251.11;1613038;86;36526;-79
2021/11/30 03:48:21;;;;;;;12.82;7.45;;;;;;;1.53;85.51;97260.34;1625361;86;21789;-80
2021/11/30 03:50:51;;;;;;;12.33;7.70;;;;;;;1.53;85.65;97264.39;1624811;86;21519;-80
2021/11/30 03:53:21;;;;;;;12.55;7.30;;;;;;;1.53;85.56;97269.00;1610620;86;21162;-78
2021/11/30 03:55:51;;;;;;;13.25;6.62;;;;;;;1.53;85.30;97282.52;1641722;86;21133;-79
2021/11/30 03:58:20;;;;;;;12.50;6.78;;;;;;;1.51;85.19;97284.73;1666053;85;20962;-80
2021/11/30 04:00:52;;;;;;;13.62;6.75;;;;;;;1.52;85.16;97285.78;1661534;85;21177;-79
2021/11/30 04:03:22;;;;;;;10.83;6.53;;;;;;;1.53;85.07;97286.58;1657493;85;20854;-75
2021/11/30 04:05:51;;;;;;;11.60;6.67;;;;;;;1.52;84.87;97289.03;1645969;85;20978;-76
2021/11/30 04:08:19;;;;;;;9.50;5.90;;;;;;;1.53;84.68;97285.23;1651739;84;22201;-75
2021/11/30 04:10:45;;;;;;;11.00;5.80;;;;;;;1.51;84.44;97297.70;1656388;85;20885;-75
2021/11/30 04:13:14;;;;;;;13.03;6.58;;;;;;;1.52;84.08;97303.91;1651671;85;21137;-75
2021/11/30 04:15:46;;;;;;;11.97;5.55;;;;;;;1.52;84.05;97318.78;1643565;86;20999;-74
2021/11/30 04:18:16;;;;;;;11.97;6.37;;;;;;;1.52;84.05;97312.02;1646086;85;21012;-75
2021/11/30 04:20:44;;;;;;;11.10;6.17;;;;;;;1.50;83.67;97305.58;1674587;84;21015;-75
2021/11/30 04:23:12;;;;;;;12.37;7.12;;;;;;;1.52;83.62;97320.13;1678034;84;21024;-74
2021/11/30 04:25:45;;;;;;;11.45;6.20;;;;;;;1.52;83.73;97326.89;1676427;85;21615;-75
2021/11/30 04:28:14;;;;;;;10.23;6.22;;;;;;;1.51;83.53;97332.06;1685050;84;21569;-75
2021/11/30 04:30:44;;;;;;;9.98;6.12;;;;;;;1.52;83.48;97337.71;1675245;85;21044;-75
2021/11/30 04:33:17;;;;;;;10.65;5.90;;;;;;;1.50;83.08;97344.78;1667930;85;21003;-75
2021/11/30 04:35:44;;;;;;;9.05;5.42;;;;;;;1.51;83.33;97338.82;1645700;86;21217;-80
2021/11/30 04:38:22;;;;;;;10.98;5.70;;;;;;;1.50;83.45;97346.13;1650053;85;21139;-78
2021/11/30 04:40:52;;;;;;;13.65;6.25;;;;;;;1.50;83.02;97352.89;1645465;86;21108;-78
2021/11/30 04:43:16;;;;;;;10.65;6.10;;;;;;;1.51;83.26;97353.69;1651931;85;20948;-77
2021/11/30 04:48:14;;;;;;;10.35;5.87;;;;;;;1.52;83.12;97360.70;1687335;83;20980;-78
2021/11/30 04:50:49;;;;;;;12.45;6.97;;;;;;;1.51;82.72;97355.05;1674080;84;21182;-86
2021/11/30 04:53:20;;;;;;;10.25;6.08;;;;;;;1.51;82.85;97370.72;1660020;83;21002;-78
2021/11/30 04:55:51;;;;;;;11.22;6.45;;;;;;;1.50;82.91;97377.23;1645199;86;20918;-81
2021/11/30 04:58:18;;;;;;;11.65;6.83;;;;;;;1.52;83.22;97380.42;1653500;85;21178;-78
2021/11/30 05:00:49;;;;;;;11.73;6.50;;;;;;;1.52;83.32;97371.52;1685250;83;21019;-82
2021/11/30 05:03:24;;;;;;;10.58;5.75;;;;;;;1.52;83.67;97375.56;1668470;84;21076;-80
2021/11/30 05:05:53;;;;;;;9.13;6.15;;;;;;;1.52;83.29;97373.66;1684047;84;20896;-78
2021/11/30 05:08:30;;;;;;;12.55;6.25;;;;;;;1.53;82.67;97371.75;1679043;84;21085;-77
2021/11/30 05:11:00;;;;;;;8.35;5.53;;;;;;;1.52;82.15;97385.83;1676039;84;21067;-79
2021/11/30 05:13:31;;;;;;;9.23;4.60;;;;;;;1.51;82.39;97375.32;1686584;83;20986;-79
2021/11/30 05:15:59;;;;;;;7.78;5.22;;;;;;;1.52;82.19;97374.22;1679441;84;21451;-78
2021/11/30 05:18:30;;;;;;;10.00;5.12;;;;;;;1.52;82.60;97399.35;1677365;84;21005;-78
2021/11/30 05:21:01;;;;;;;10.08;5.87;;;;;;;1.52;82.67;97391.23;1675793;84;20947;-77
2021/11/30 05:23:30;;;;;;;10.08;5.55;;;;;;;1.51;82.77;97401.81;1677954;84;21067;-76
2021/11/30 05:26:04;;;;;;;8.73;5.03;;;;;;;1.51;82.97;97411.27;1678058;84;21051;-77
2021/11/30 05:28:34;;;;;;;8.45;5.20;;;;;;;1.50;83.28;97408.87;1682500;84;21823;-76
2021/11/30 05:31:08;;;;;;;9.45;5.65;;;;;;;1.49;83.28;97412.14;1659713;83;20900;-76
2021/11/30 05:33:34;;;;;;;;;;;;;;;1.50;82.98;97423.20;1653406;86;20944;-76
2021/11/30 05:36:03;;;;;;;7.80;5.05;;;;;;;1.49;83.06;97415.39;1648584;86;20620;-78
2021/11/30 05:38:37;;;;;;;15.43;5.95;;;;;;;1.48;83.11;97422.70;1649934;86;20900;-77
2021/11/30 05:41:06;;;;;;;7.53;4.55;;;;;;;1.48;82.87;97424.61;1649854;86;21152;-78
2021/11/30 05:43:36;;;;;;;10.30;4.83;;;;;;;1.47;82.38;97448.14;1647658;86;21181;-77
2021/11/30 05:46:06;;;;;;;7.97;4.30;;;;;;;1.47;82.01;97441.94;1629490;87;20987;-78
2021/11/30 05:48:39;;;;;;;8.68;4.35;;;;;;;1.49;81.88;97453.25;1651153;86;21019;-78
2021/11/30 05:51:09;;;;;;;7.95;4.15;;;;;;;1.48;80.71;97436.78;1627182;86;21053;-79
2021/11/30 05:53:46;;;;;;;4.35;3.35;;;;;;;1.49;80.87;97466.77;1650872;86;20872;-78
2021/11/30 05:56:16;;;;;;;5.47;3.10;;;;;;;1.49;79.85;97463.52;1642450;86;20940;-77
2021/11/30 05:58:52;;;;;;;7.55;2.92;;;;;;;1.50;79.34;97473.77;1630356;86;21142;-79
2021/11/30 06:01:25;;;;;;;8.68;3.90;;;;;;;1.52;78.79;97476.97;1648269;86;21544;-77
2021/11/30 06:04:00;;;;;;;6.35;3.67;;;;;;;1.53;78.83;97480.72;1648138;85;21106;-78
2021/11/30 06:06:36;;;;;;;9.05;3.67;;;;;;;1.53;78.11;97481.27;1645797;86;22072;-80
2021/11/30 06:09:08;;;;;;;6.30;3.55;;;;;;;1.54;78.55;97486.92;1648802;86;20995;-77
2021/11/30 06:11:37;;;;;;;4.10;2.47;;;;;;;1.54;77.84;97491.78;1604750;87;21000;-77
2021/11/30 06:14:06;;;;;;;4.42;2.37;;;;;;;1.54;75.14;97478.27;1648024;84;21526;-79
2021/11/30 06:16:33;;;;;;;7.40;2.65;;;;;;;1.56;74.76;97472.55;1648522;86;20996;-78
2021/11/30 06:19:04;;;;;;;3.27;2.10;;;;;;;1.57;74.61;97503.89;1659062;85;21107;-79
2021/11/30 06:21:33;;;;;;;;;;;;;;;1.57;73.56;97489.81;1675754;84;20956;-78
2021/11/30 06:24:01;;;;;;;3.75;1.60;;;;;;;1.59;72.51;97496.27;1669680;84;20173;-77
2021/11/30 06:26:30;;;;;;;3.75;1.92;;;;;;;1.57;71.94;97495.78;1687238;84;20978;-79
2021/11/30 06:29:00;;;;;;;3.02;1.67;;;;;;;1.58;72.68;97495.47;1674541;84;20977;-78
2021/11/30 06:31:28;;;;;;;4.67;1.60;;;;;;;1.58;72.14;97497.38;1667108;84;21222;-78
2021/11/30 06:33:57;;;;;;;6.03;2.02;;;;;;;1.58;71.99;97491.97;1680696;84;20960;-79
2021/11/30 06:36:25;;;;;;;2.75;1.70;;;;;;;1.58;72.22;97496.02;1675876;84;21451;-80
2021/11/30 06:38:57;;;;;;;3.72;2.02;;;;;;;1.58;72.03;97496.83;1681054;84;21035;-78
2021/11/30 06:41:27;;;;;;;6.17;2.65;;;;;;;1.60;72.59;97495.17;1674215;84;21087;-78
2021/11/30 06:43:54;;;;;;;7.83;2.77;;;;;;;1.61;72.93;97501.63;1676710;84;21779;-80
2021/11/30 06:46:20;;;;;;;6.90;2.62;;;;;;;1.61;72.98;97497.56;1674300;84;20948;-78
2021/11/30 06:48:54;;;;;;;7.83;3.30;;;;;;;1.63;73.28;97498.61;1673198;84;21518;-78
2021/11/30 06:51:24;;;;;;;3.80;2.37;;;;;;;1.64;73.21;97501.56;1675933;84;20977;-78
2021/11/30 06:53:50;;;;;;;5.45;2.00;;;;;;;1.63;73.43;97489.95;1671775;85;20963;-77
2021/11/30 06:56:19;;;;;;;4.05;2.40;;;;;;;1.65;73.09;97497.75;1688039;83;21069;-78
2021/11/30 06:58:45;;;;;;;5.65;2.50;;;;;;;1.63;73.22;97484.53;1692805;83;20874;-77
2021/11/30 07:01:14;;;;;;;5.67;2.83;;;;;;;1.63;73.87;97499.41;1695534;83;20944;-75
2021/11/30 07:03:48;;;;;;;4.90;2.83;;;;;;;1.63;73.79;97498.06;1705066;83;20969;-80
2021/11/30 07:06:27;;;;;;;4.40;2.70;;;;;;;1.62;74.37;97499.16;1699849;83;20992;-81
2021/11/30 07:09:03;;;;;;;6.65;3.90;;;;;;;1.62;74.85;97501.07;1694841;83;21385;-77
2021/11/30 07:14:16;;;;;;;3.72;2.60;;;;;;;1.61;75.04;97511.64;1649349;84;21007;-81
2021/11/30 07:16:46;;;;;;;6.15;2.80;;;;;;;1.60;75.14;97517.60;1700850;83;21542;-81
2021/11/30 07:19:16;;;;;;;6.20;2.50;;;;;;;1.59;75.60;97526.83;1685486;84;21557;-81
2021/11/30 07:21:44;;;;;;;4.55;2.80;;;;;;;1.59;75.52;97531.43;1675250;85;21633;-87
2021/11/30 07:24:14;;;;;;;6.83;3.30;;;;;;;1.60;75.91;97535.18;1678132;84;21067;-78
2021/11/30 07:26:45;;;;;;;6.00;3.52;;;;;;;1.60;75.95;97531.13;1672552;85;21068;-79
2021/11/30 07:29:16;;;;;;;7.25;3.65;;;;;;;1.61;76.19;97529.22;1652078;86;21558;-79
2021/11/30 07:31:44;;;;;;;6.37;4.10;;;;;;;1.59;76.67;97534.14;1621780;86;21018;-80
2021/11/30 07:34:14;;;;;;;7.97;4.15;;;;;;;1.60;77.00;97530.33;1651022;86;22204;-80
2021/11/30 07:36:41;;;;;;;5.28;3.65;;;;;;;1.59;77.00;97535.48;1656905;85;21537;-80
2021/11/30 07:39:17;;;;;;;7.40;3.40;;;;;;;1.58;77.56;97527.92;1636870;86;21195;-79
2021/11/30 07:41:53;;;;;;;6.00;3.75;;;;;;;1.58;77.77;97533.34;1636936;86;21720;-88
2021/11/30 07:44:22;;;;;;;7.90;4.00;;;;;;;1.58;77.97;97540.65;1665473;85;21032;-80
2021/11/30 07:46:58;;;;;;;7.92;4.20;;;;;;;1.58;77.76;97539.30;1664232;85;21559;-83
2021/11/30 07:49:28;;;;;;;7.70;3.85;;;;;;;1.59;78.04;97539.55;1684132;84;21030;-81
2021/11/30 07:51:55;;;;;;;9.33;4.67;;;;;;;1.58;77.95;97536.04;1682621;83;21063;-81
2021/11/30 07:54:29;;;;;;;7.25;4.70;;;;;;;1.59;78.11;97546.30;1689799;84;20975;-80
2021/11/30 07:57:01;;;;;;;7.17;4.72;;;;;;;1.59;78.13;97536.84;1686225;84;21000;-82
2021/11/30 07:59:29;;;;;;;8.68;5.22;;;;;;;1.61;78.57;97540.84;1683815;84;21139;-82
2021/11/30 08:01:59;;;;;;;9.33;4.75;;;;;;;1.63;78.59;97522.95;1686949;83;21066;-81
2021/11/30 08:04:26;;;;;;;7.20;4.42;;;;;;;1.62;78.60;97538.38;1679948;84;21039;-82
2021/11/30 08:06:56;;;;;;;7.75;4.90;;;;;;;1.64;78.57;97539.42;1665432;83;21640;-83
2021/11/30 08:09:28;;;;;;;6.85;4.55;;;;;;;1.64;78.58;97540.23;1692176;83;21079;-82
2021/11/30 08:11:55;;;;;;;9.45;5.17;;;;;;;1.65;78.84;97543.18;1681520;83;21589;-82
2021/11/30 08:14:24;;;;;;;10.20;5.33;;;;;;;1.68;78.10;97540.41;1692770;83;21277;-82
2021/11/30 08:16:53;;;;;;;8.65;5.05;;;;;;;1.69;78.26;97533.10;1681118;83;21587;-82
2021/11/30 08:19:23;;;;;;;7.85;4.75;;;;;;;1.69;78.52;97537.16;1686110;84;21098;-81
2021/11/30 08:21:51;;;;;;;8.85;4.95;;;;;;;1.70;78.32;97536.84;1680963;84;21052;-81
2021/11/30 08:24:21;;;;;;;7.22;4.37;;;;;;;1.71;78.38;97545.21;1658782;84;21050;-79
2021/11/30 08:26:51;;;;;;;8.15;5.05;;;;;;;1.72;78.38;97554.13;1666926;83;21094;-80
2021/11/30 08:29:20;;;;;;;6.90;4.20;;;;;;;1.73;77.65;97555.73;1683150;84;21717;-82
2021/11/30 08:31:50;;;;;;;7.47;4.37;;;;;;;1.75;77.66;97564.30;1676353;84;21575;-79
2021/11/30 08:34:20;;;;;;;7.65;4.53;;;;;;;1.79;77.82;97543.66;1674546;84;21062;-80
2021/11/30 08:36:51;;;;;;;6.53;4.00;;;;;;;1.82;77.77;97545.74;1688291;83;22265;-81
2021/11/30 08:39:26;;;;;;;12.25;4.75;;;;;;;1.85;77.57;97544.58;1663716;84;21166;-82
2021/11/30 08:41:54;;;;;;;13.85;4.58;;;;;;;1.86;77.15;97539.96;1691734;83;21015;-80
2021/11/30 08:44:23;;;;;;;9.05;5.42;;;;;;;1.87;77.18;97541.56;1678415;83;21051;-82
2021/11/30 08:46:51;;;;;;;11.00;4.08;;;;;;;1.87;76.85;97538.86;1690765;83;21074;-81
2021/11/30 08:49:22;;;;;;;9.05;4.70;;;;;;;1.87;76.87;97542.91;1680373;84;21189;-82
2021/11/30 08:51:52;;;;;;;7.25;4.83;;;;;;;1.89;76.87;97544.76;1679327;83;21052;-82
2021/11/30 08:54:21;;;;;;;8.20;4.75;;;;;;;1.91;76.80;97537.94;1683687;83;21023;-82
2021/11/30 08:57:06;;;;;;;8.88;4.65;;;;;;;1.94;76.60;97531.91;1686723;84;21055;-83
2021/11/30 08:59:35;;;;;;;8.43;4.20;;;;;;;1.96;76.85;97528.34;1654871;84;21523;-80
2021/11/30 09:02:01;;;;;;;8.85;4.37;;;;;;;1.96;76.17;97532.95;1686866;84;22142;-84
2021/11/30 09:04:32;;;;;;;8.28;4.83;;;;;;;1.93;75.57;97519.48;1683171;84;21083;-83
2021/11/30 09:07:01;;;;;;;11.70;6.00;;;;;;;1.92;75.93;97517.88;1687769;83;21511;-84
2021/11/30 09:09:31;;;;;;;10.63;4.85;;;;;;;1.93;76.49;97531.66;1688432;83;21118;-81
2021/11/30 09:11:57;;;;;;;8.00;4.50;;;;;;;1.91;76.02;97515.48;1680527;84;21495;-86
2021/11/30 09:14:29;;;;;;;6.22;3.67;;;;;;;1.93;75.13;97514.63;1655280;84;21020;-82
2021/11/30 09:16:59;;;;;;;6.83;4.03;;;;;;;1.93;74.74;97518.69;1675568;83;21080;-81
2021/11/30 09:19:35;;;;;;;7.10;4.03;;;;;;;1.93;74.77;97514.07;1675755;83;21043;-79
2021/11/30 09:22:09;;;;;;;9.70;6.17;;;;;;;1.95;74.65;97521.88;1662358;84;21045;-79
2021/11/30 09:24:35;;;;;;;9.18;5.12;;;;;;;1.95;75.11;97501.59;1679758;84;21082;-80
2021/11/30 09:27:05;;;;;;;12.05;6.33;;;;;;;1.95;75.07;97518.63;1674832;83;21170;-79
2021/11/30 09:29:33;;;;;;;6.20;3.50;;;;;;;1.96;73.84;97521.58;1680122;84;21083;-79
2021/11/30 09:32:04;;;;;;;8.20;4.37;;;;;;;1.99;72.31;97514.19;1657553;84;21028;-79
2021/11/30 09:34:30;;;;;;;8.70;4.60;;;;;;;2.07;71.76;97509.14;1677487;84;21149;-79
2021/11/30 09:37:07;;;;;;;17.67;7.80;;;;;;;2.14;72.11;97510.30;1649465;86;21114;-80
2021/11/30 09:39:36;;;;;;;10.82;6.30;;;;;;;2.18;72.06;97505.86;1655433;85;21075;-75
2021/11/30 09:42:08;;;;;;;15.13;4.33;;;;;;;2.21;71.41;97509.30;1650267;85;21027;-77
2021/11/30 09:44:41;;;;;;;7.03;4.55;;;;;;;2.22;70.23;97495.22;1653706;85;21122;-79
2021/11/30 09:47:16;;;;;;;;;;;;;;;2.23;70.28;97504.94;1659001;85;21018;-79
2021/11/30 09:49:45;;;;;;;5.25;2.90;;;;;;;2.24;70.44;97499.77;1618413;86;20200;-78
2021/11/30 09:52:15;;;;;;;8.95;3.90;;;;;;;2.23;68.84;97503.02;1622727;86;21513;-76
2021/11/30 09:54:51;;;;;;;5.70;3.52;;;;;;;2.23;69.08;97504.94;1633206;84;21047;-80
2021/11/30 09:57:17;;;;;;;5.97;4.00;;;;;;;2.22;68.08;97497.37;1649878;85;21496;-77
2021/11/30 09:59:48;;;;;;;8.23;4.60;;;;;;;2.25;67.51;97513.55;1676393;85;21535;-78
2021/11/30 10:02:22;;;;;;;15.00;4.85;;;;;;;2.28;67.92;97507.51;1685035;84;21015;-85
2021/11/30 10:04:53;;;;;;;8.35;3.52;;;;;;;2.34;68.18;97511.65;1673332;84;21221;-82
2021/11/30 10:07:44;;;;;;;6.00;2.72;;;;;;;2.37;68.18;97513.73;1684204;84;21189;-80
2021/11/30 10:10:19;;;;;;;3.42;2.10;;;;;;;2.38;67.79;97520.75;1668660;84;20961;-84
2021/11/30 10:13:08;;;;;;;6.87;2.77;;;;;;;2.36;66.90;97506.72;1647767;84;20925;-88
2021/11/30 10:15:53;;;;;;;8.65;3.08;;;;;;;2.33;67.67;97515.47;1671073;83;21507;-80
2021/11/30 10:18:32;;;;;;;9.65;2.98;;;;;;;2.27;67.42;97527.02;1678330;84;21228;-82
2021/11/30 10:21:25;;;;;;;4.40;2.50;;;;;;;2.21;67.49;97522.84;1677781;84;21102;-82
2021/11/30 10:24:07;;;;;;;4.35;2.92;;;;;;;2.17;68.25;97526.48;1655084;86;21621;-81
2021/11/30 10:26:41;;;;;;;6.42;2.80;;;;;;;2.14;68.37;97519.78;1680585;83;21007;-81
2021/11/30 10:29:12;;;;;;;8.40;2.85;;;;;;;2.12;68.71;97534.17;1692481;84;21543;-83
2021/11/30 10:31:50;;;;;;;7.90;3.33;;;;;;;2.12;68.19;97530.66;1655117;84;21605;-82
2021/11/30 10:34:23;;;;;;;7.20;4.10;;;;;;;2.16;68.89;97538.41;1690584;83;21020;-82
2021/11/30 10:36:59;;;;;;;8.80;4.53;;;;;;;2.20;69.08;97532.63;1695004;84;20950;-81
2021/11/30 10:39:34;;;;;;;4.58;2.70;;;;;;;2.25;68.65;97537.91;1694131;83;21547;-81
2021/11/30 10:42:21;;;;;;;8.20;3.85;;;;;;;2.27;68.55;97534.34;1675007;83;21158;-81
2021/11/30 10:44:51;;;;;;;6.87;3.77;;;;;;;2.28;68.60;97530.52;1694960;83;21152;-82
2021/11/30 10:47:24;;;;;;;10.40;5.03;;;;;;;2.26;68.01;97528.67;1673862;84;21475;-83
2021/11/30 10:49:59;;;;;;;6.53;3.62;;;;;;;2.23;68.73;97524.69;1654927;85;21230;-83
2021/11/30 10:52:34;;;;;;;9.38;5.40;;;;;;;2.21;68.87;97523.39;1653793;85;21008;-86
2021/11/30 10:55:16;;;;;;;11.88;4.60;;;;;;;2.19;69.45;97531.83;1673695;85;21119;-82
2021/11/30 10:57:49;;;;;;;11.15;6.17;;;;;;;2.18;69.56;97534.29;1677339;84;22207;-85
2021/11/30 11:00:27;;;;;;;9.78;5.15;;;;;;;2.16;69.49;97539.21;1672617;84;20991;-87
2021/11/30 11:03:02;;;;;;;9.40;4.40;;;;;;;2.13;68.65;97538.48;1677330;84;21594;-86
2021/11/30 11:05:43;;;;;;;12.50;7.15;;;;;;;2.11;68.11;97529.06;1654319;85;20945;-84
2021/11/30 11:08:18;;;;;;;12.82;6.08;;;;;;;2.12;68.52;97530.11;1652021;85;21008;-84
2021/11/30 11:10:48;;;;;;;;;;;;;;;2.19;67.87;97509.37;1653575;85;21007;-87
2021/11/30 11:13:34;;;;;;;10.43;3.80;;;;;;;2.26;66.04;97524.62;1651836;85;20104;-88
2021/11/30 11:16:04;;;;;;;9.93;5.40;;;;;;;2.28;65.13;97532.67;1644528;85;21000;-85
2021/11/30 11:18:41;;;;;;;7.03;3.37;;;;;;;2.28;63.94;97515.08;1640440;85;21449;-85
2021/11/30 11:21:29;;;;;;;6.62;2.92;;;;;;;2.27;63.95;97509.42;1646698;85;21047;-84
2021/11/30 11:24:07;;;;;;;4.07;2.00;;;;;;;2.26;63.53;97514.59;1674717;85;21165;-85
2021/11/30 11:26:42;;;;;;;3.92;1.87;;;;;;;2.24;63.10;97507.33;1650160;85;20999;-88
2021/11/30 11:29:28;;;;;;;3.27;1.65;;;;;;;2.21;61.50;97517.42;1651812;84;20952;-88
2021/11/30 11:32:03;;;;;;;3.90;1.90;;;;;;;2.17;61.97;97522.42;1677942;84;21464;-86
2021/11/30 11:34:32;;;;;;;3.65;1.72;;;;;;;2.13;63.04;97522.23;1674100;84;20974;-88
2021/11/30 11:37:01;;;;;;;6.03;2.60;;;;;;;2.12;63.18;97528.76;1679987;84;22287;-85
2021/11/30 11:39:32;;;;;;;5.05;2.02;;;;;;;2.11;63.82;97531.77;1680386;84;21003;-86
2021/11/30 11:42:11;;;;;;;3.83;2.50;;;;;;;2.09;63.62;97528.58;1673540;85;21054;-86
2021/11/30 11:44:43;;;;;;;4.92;2.20;;;;;;;2.08;63.64;97516.16;1654836;84;21007;-87
2021/11/30 11:47:22;;;;;;;3.77;2.10;;;;;;;2.08;64.17;97517.50;1688712;84;20933;-87
2021/11/30 11:49:54;;;;;;;4.25;1.87;;;;;;;2.05;63.39;97510.00;1679658;84;21562;-85
2021/11/30 11:52:31;;;;;;;3.75;1.95;;;;;;;2.04;63.57;97511.11;1649307;86;20987;-87
2021/11/30 11:55:11;;;;;;;4.10;2.37;;;;;;;2.04;64.64;97490.81;1650844;84;21495;-87
2021/11/30 11:57:40;;;;;;;5.90;2.35;;;;;;;2.03;63.50;97513.02;1644679;86;21506;-86
2021/11/30 12:00:20;;;;;;;5.62;2.33;;;;;;;2.15;64.03;97516.52;1646663;86;20892;-88
2021/11/30 12:03:01;;;;;;;5.55;2.20;;;;;;;2.21;63.73;97517.98;1655823;85;22138;-87
2021/11/30 12:05:50;;;;;;;3.12;1.98;;;;;;;2.20;63.64;97517.73;1650597;85;21150;-89
2021/11/30 12:08:32;;;;;;;3.05;1.67;;;;;;;2.15;63.14;97507.84;1659155;85;20980;-86
2021/11/30 12:11:11;;;;;;;3.00;1.72;;;;;;;2.09;63.61;97525.88;1659264;86;21094;-87